SWA7167 KMDW-KDCA
Flight info
| Callsign | SWA7167 |
|---|---|
| Flight time | 1h 25m |
| Altitude | 35000 |
| Route | LEWKE GIJ OTENS ANEWA JERRI NUSMM BUCKO FRDMM6 |
| Aircraft | B738/M-SDE2E3FGHIRWXY/LB1 |
Departure
| Time | 2026-04-26 16:17 |
|---|---|
| Airport | Chicago Midway International Airport (KMDW) |
Arrival
| Time | 2026-04-26 17:42 |
|---|---|
| Airport | Ronald Reagan Washington National Airport (KDCA) |
| Time | Latitude | Longitude | Altitude | Speed | Heading |
|---|---|---|---|---|---|
| 2026-04-26 15:52 | 41.78539 | -87.74362 | 628 ft | 0 kts | 133° |
| 2026-04-26 16:04 | 41.78552 | -87.74379 | 630 ft | 4 kts | 130° |
| 2026-04-26 16:04 | 41.78559 | -87.74408 | 628 ft | 4 kts | 94° |
| 2026-04-26 16:04 | 41.78565 | -87.74428 | 636 ft | 4 kts | 181° |
| 2026-04-26 16:04 | 41.78580 | -87.74420 | 631 ft | 4 kts | 223° |
| 2026-04-26 16:05 | 41.78591 | -87.74406 | 633 ft | 1 kts | 223° |
| 2026-04-26 16:05 | 41.78592 | -87.74405 | 633 ft | 0 kts | 223° |
| 2026-04-26 16:08 | 41.78591 | -87.74405 | 628 ft | 0 kts | 223° |
| 2026-04-26 16:08 | 41.78567 | -87.74436 | 635 ft | 8 kts | 223° |
| 2026-04-26 16:08 | 41.78528 | -87.74485 | 632 ft | 8 kts | 223° |
| 2026-04-26 16:09 | 41.78483 | -87.74542 | 631 ft | 9 kts | 223° |
| 2026-04-26 16:09 | 41.78489 | -87.74616 | 634 ft | 9 kts | 310° |
| 2026-04-26 16:09 | 41.78537 | -87.74687 | 628 ft | 15 kts | 314° |
| 2026-04-26 16:09 | 41.78609 | -87.74786 | 628 ft | 12 kts | 314° |
| 2026-04-26 16:10 | 41.78592 | -87.74876 | 631 ft | 12 kts | 224° |
| 2026-04-26 16:10 | 41.78516 | -87.74972 | 631 ft | 19 kts | 223° |
| 2026-04-26 16:10 | 41.78415 | -87.75100 | 633 ft | 20 kts | 223° |
| 2026-04-26 16:10 | 41.78316 | -87.75225 | 632 ft | 19 kts | 223° |
| 2026-04-26 16:11 | 41.78220 | -87.75346 | 633 ft | 19 kts | 223° |
| 2026-04-26 16:11 | 41.78128 | -87.75463 | 630 ft | 18 kts | 223° |
| 2026-04-26 16:11 | 41.78039 | -87.75576 | 628 ft | 17 kts | 223° |
| 2026-04-26 16:11 | 41.77972 | -87.75660 | 629 ft | 8 kts | 223° |
| 2026-04-26 16:12 | 41.77961 | -87.75675 | 631 ft | 0 kts | 224° |
| 2026-04-26 16:14 | 41.77951 | -87.75688 | 630 ft | 7 kts | 224° |
| 2026-04-26 16:14 | 41.77913 | -87.75853 | 636 ft | 11 kts | 269° |
| 2026-04-26 16:15 | 41.77930 | -87.75908 | 635 ft | 4 kts | 0° |
| 2026-04-26 16:15 | 41.77946 | -87.75895 | 627 ft | 1 kts | 43° |
| 2026-04-26 16:16 | 41.78025 | -87.75795 | 631 ft | 48 kts | 43° |
| 2026-04-26 16:16 | 41.78459 | -87.75245 | 629 ft | 120 kts | 43° |
| 2026-04-26 16:16 | 41.79190 | -87.74307 | 740 ft | 167 kts | 45° |
| 2026-04-26 16:17 | 41.80023 | -87.73217 | 1534 ft | 167 kts | 52° |
| 2026-04-26 16:17 | 41.80563 | -87.71799 | 2200 ft | 183 kts | 78° |
| 2026-04-26 16:17 | 41.80543 | -87.69945 | 2437 ft | 210 kts | 95° |
| 2026-04-26 16:17 | 41.80372 | -87.67943 | 2872 ft | 227 kts | 97° |
| 2026-04-26 16:18 | 41.80183 | -87.65712 | 3178 ft | 249 kts | 97° |
| 2026-04-26 16:18 | 41.79833 | -87.61056 | 4956 ft | 254 kts | 96° |
| 2026-04-26 16:19 | 41.79498 | -87.56232 | 6578 ft | 266 kts | 96° |
| 2026-04-26 16:19 | 41.79334 | -87.53747 | 7394 ft | 270 kts | 96° |
| 2026-04-26 16:19 | 41.79002 | -87.48665 | 9021 ft | 278 kts | 96° |
| 2026-04-26 16:20 | 41.78833 | -87.46070 | 9810 ft | 282 kts | 97° |
| 2026-04-26 16:20 | 41.78474 | -87.40584 | 10623 ft | 319 kts | 97° |
| 2026-04-26 16:20 | 41.78272 | -87.37520 | 10832 ft | 341 kts | 96° |
| 2026-04-26 16:21 | 41.78060 | -87.34288 | 11313 ft | 353 kts | 96° |
| 2026-04-26 16:21 | 41.77845 | -87.30988 | 12009 ft | 358 kts | 97° |
| 2026-04-26 16:21 | 41.77626 | -87.27651 | 12719 ft | 362 kts | 97° |
| 2026-04-26 16:21 | 41.77404 | -87.24271 | 13390 ft | 367 kts | 97° |
| 2026-04-26 16:22 | 41.77176 | -87.20843 | 14042 ft | 372 kts | 97° |
| 2026-04-26 16:22 | 41.76944 | -87.17370 | 14687 ft | 377 kts | 97° |
| 2026-04-26 16:22 | 41.76709 | -87.13853 | 15331 ft | 381 kts | 97° |
| 2026-04-26 16:22 | 41.76469 | -87.10291 | 15956 ft | 386 kts | 97° |
| 2026-04-26 16:23 | 41.76230 | -87.06692 | 16557 ft | 391 kts | 96° |
| 2026-04-26 16:23 | 41.76156 | -87.03028 | 17179 ft | 395 kts | 91° |
| 2026-04-26 16:23 | 41.76194 | -86.99322 | 17747 ft | 400 kts | 90° |
| 2026-04-26 16:23 | 41.76262 | -86.95577 | 18312 ft | 405 kts | 90° |
| 2026-04-26 16:24 | 41.76332 | -86.91784 | 18865 ft | 409 kts | 90° |
| 2026-04-26 16:24 | 41.76395 | -86.87959 | 19427 ft | 413 kts | 90° |
| 2026-04-26 16:24 | 41.76449 | -86.84097 | 19967 ft | 416 kts | 90° |
| 2026-04-26 16:24 | 41.76496 | -86.80208 | 20519 ft | 419 kts | 90° |
| 2026-04-26 16:25 | 41.76539 | -86.76288 | 21036 ft | 423 kts | 90° |
| 2026-04-26 16:25 | 41.76578 | -86.72331 | 21518 ft | 427 kts | 90° |
| 2026-04-26 16:25 | 41.76615 | -86.68348 | 22010 ft | 430 kts | 90° |
| 2026-04-26 16:25 | 41.76652 | -86.64336 | 22537 ft | 431 kts | 90° |
| 2026-04-26 16:26 | 41.76687 | -86.60307 | 23014 ft | 435 kts | 90° |
| 2026-04-26 16:26 | 41.76710 | -86.57616 | 23311 ft | 437 kts | 90° |
| 2026-04-26 16:26 | 41.76755 | -86.52154 | 23893 ft | 441 kts | 90° |
| 2026-04-26 16:26 | 41.76787 | -86.48032 | 24310 ft | 444 kts | 90° |
| 2026-04-26 16:27 | 41.76818 | -86.43940 | 24739 ft | 446 kts | 90° |
| 2026-04-26 16:27 | 41.76848 | -86.39775 | 25135 ft | 450 kts | 89° |
| 2026-04-26 16:27 | 41.76877 | -86.35570 | 25520 ft | 452 kts | 89° |
| 2026-04-26 16:27 | 41.76889 | -86.31345 | 25890 ft | 455 kts | 91° |
| 2026-04-26 16:28 | 41.76726 | -86.27097 | 26247 ft | 458 kts | 94° |
| 2026-04-26 16:28 | 41.76467 | -86.22769 | 26612 ft | 461 kts | 95° |
| 2026-04-26 16:28 | 41.76182 | -86.18549 | 26973 ft | 463 kts | 95° |
| 2026-04-26 16:28 | 41.75885 | -86.14244 | 27307 ft | 465 kts | 95° |
| 2026-04-26 16:29 | 41.75593 | -86.09915 | 27628 ft | 468 kts | 95° |
| 2026-04-26 16:29 | 41.75308 | -86.05566 | 27957 ft | 470 kts | 95° |
| 2026-04-26 16:29 | 41.75028 | -86.01192 | 28262 ft | 473 kts | 94° |
| 2026-04-26 16:29 | 41.74751 | -85.96796 | 28572 ft | 475 kts | 94° |
| 2026-04-26 16:30 | 41.74473 | -85.92380 | 28864 ft | 477 kts | 94° |
| 2026-04-26 16:30 | 41.74193 | -85.87945 | 29165 ft | 479 kts | 94° |
| 2026-04-26 16:30 | 41.73910 | -85.83493 | 29452 ft | 481 kts | 94° |
| 2026-04-26 16:30 | 41.73624 | -85.79023 | 29748 ft | 482 kts | 94° |
| 2026-04-26 16:31 | 41.73335 | -85.74541 | 30037 ft | 484 kts | 94° |
| 2026-04-26 16:31 | 41.73045 | -85.70059 | 30390 ft | 483 kts | 94° |
| 2026-04-26 16:31 | 41.72752 | -85.65585 | 30797 ft | 481 kts | 94° |
| 2026-04-26 16:31 | 41.72459 | -85.61135 | 31205 ft | 479 kts | 94° |
| 2026-04-26 16:32 | 41.72165 | -85.56699 | 31551 ft | 478 kts | 94° |
| 2026-04-26 16:32 | 41.71970 | -85.53764 | 31743 ft | 479 kts | 94° |
| 2026-04-26 16:32 | 41.71573 | -85.47823 | 32159 ft | 478 kts | 94° |
| 2026-04-26 16:32 | 41.71276 | -85.43402 | 32525 ft | 476 kts | 94° |
| 2026-04-26 16:33 | 41.70982 | -85.39053 | 32883 ft | 475 kts | 94° |
| 2026-04-26 16:33 | 41.70683 | -85.34657 | 33176 ft | 475 kts | 94° |
| 2026-04-26 16:33 | 41.70382 | -85.30260 | 33461 ft | 474 kts | 94° |
| 2026-04-26 16:33 | 41.70080 | -85.25867 | 33775 ft | 473 kts | 93° |
| 2026-04-26 16:34 | 41.69777 | -85.21487 | 34073 ft | 472 kts | 93° |
| 2026-04-26 16:34 | 41.69473 | -85.17118 | 34373 ft | 471 kts | 93° |
| 2026-04-26 16:34 | 41.69167 | -85.12750 | 34582 ft | 473 kts | 94° |
| 2026-04-26 16:34 | 41.68859 | -85.08367 | 34746 ft | 475 kts | 94° |
| 2026-04-26 16:35 | 41.68548 | -85.03962 | 34962 ft | 475 kts | 94° |
| 2026-04-26 16:35 | 41.68236 | -84.99566 | 35188 ft | 475 kts | 94° |
| 2026-04-26 16:35 | 41.67601 | -84.90707 | 35186 ft | 479 kts | 94° |
| 2026-04-26 16:36 | 41.66960 | -84.81861 | 35172 ft | 475 kts | 94° |
| 2026-04-26 16:36 | 41.66389 | -84.73082 | 35186 ft | 473 kts | 91° |
| 2026-04-26 16:37 | 41.66043 | -84.64323 | 35187 ft | 472 kts | 90° |
| 2026-04-26 16:37 | 41.65773 | -84.57043 | 35192 ft | 471 kts | 91° |
| 2026-04-26 16:38 | 41.65349 | -84.46813 | 35195 ft | 472 kts | 91° |
| 2026-04-26 16:38 | 41.64961 | -84.38115 | 35206 ft | 472 kts | 91° |
| 2026-04-26 16:39 | 41.64559 | -84.29344 | 35203 ft | 473 kts | 91° |
| 2026-04-26 16:39 | 41.64151 | -84.20560 | 35207 ft | 474 kts | 91° |
| 2026-04-26 16:40 | 41.63737 | -84.11755 | 35200 ft | 475 kts | 91° |
| 2026-04-26 16:40 | 41.63316 | -84.02934 | 35205 ft | 476 kts | 91° |
| 2026-04-26 16:41 | 41.62887 | -83.94104 | 35205 ft | 476 kts | 91° |
| 2026-04-26 16:41 | 41.62452 | -83.85275 | 35213 ft | 476 kts | 91° |
| 2026-04-26 16:42 | 41.62010 | -83.76443 | 35211 ft | 476 kts | 92° |
| 2026-04-26 16:42 | 41.61562 | -83.67616 | 35212 ft | 476 kts | 92° |
| 2026-04-26 16:43 | 41.60891 | -83.58818 | 35205 ft | 478 kts | 102° |
| 2026-04-26 16:43 | 41.59040 | -83.50358 | 35222 ft | 478 kts | 106° |
| 2026-04-26 16:44 | 41.57057 | -83.41893 | 35233 ft | 477 kts | 106° |
| 2026-04-26 16:44 | 41.55116 | -83.33420 | 35229 ft | 477 kts | 105° |
| 2026-04-26 16:45 | 41.53200 | -83.24940 | 35228 ft | 477 kts | 105° |
| 2026-04-26 16:45 | 41.51288 | -83.16468 | 35218 ft | 477 kts | 105° |
| 2026-04-26 16:46 | 41.49370 | -83.08012 | 35211 ft | 476 kts | 105° |
| 2026-04-26 16:46 | 41.47445 | -82.99567 | 35212 ft | 476 kts | 105° |
| 2026-04-26 16:47 | 41.45515 | -82.91131 | 35211 ft | 475 kts | 105° |
| 2026-04-26 16:47 | 41.43583 | -82.82718 | 35213 ft | 474 kts | 106° |
| 2026-04-26 16:48 | 41.41648 | -82.74319 | 35211 ft | 474 kts | 106° |
| 2026-04-26 16:48 | 41.39702 | -82.65932 | 35213 ft | 474 kts | 108° |
| 2026-04-26 16:49 | 41.36686 | -82.58148 | 35215 ft | 475 kts | 126° |
| 2026-04-26 16:49 | 41.32269 | -82.51716 | 35209 ft | 474 kts | 135° |
| 2026-04-26 16:50 | 41.27594 | -82.45516 | 35200 ft | 475 kts | 135° |
| 2026-04-26 16:50 | 41.22934 | -82.39290 | 35204 ft | 475 kts | 135° |
| 2026-04-26 16:51 | 41.18294 | -82.33035 | 35197 ft | 475 kts | 135° |
| 2026-04-26 16:51 | 41.13661 | -82.26775 | 35192 ft | 475 kts | 135° |
| 2026-04-26 16:52 | 41.10558 | -82.22589 | 35194 ft | 476 kts | 135° |
| 2026-04-26 16:52 | 41.04379 | -82.14274 | 35191 ft | 476 kts | 135° |
| 2026-04-26 16:53 | 40.99727 | -82.08034 | 35185 ft | 476 kts | 135° |
| 2026-04-26 16:53 | 40.95075 | -82.01807 | 35184 ft | 476 kts | 135° |
| 2026-04-26 16:54 | 40.91204 | -81.96636 | 35185 ft | 476 kts | 135° |
| 2026-04-26 16:54 | 40.86548 | -81.90427 | 35185 ft | 476 kts | 135° |
| 2026-04-26 16:55 | 40.81885 | -81.84223 | 35184 ft | 476 kts | 135° |
| 2026-04-26 16:55 | 40.77222 | -81.78031 | 35186 ft | 476 kts | 135° |
| 2026-04-26 16:56 | 40.70219 | -81.68757 | 35184 ft | 476 kts | 135° |
| 2026-04-26 16:57 | 40.65548 | -81.62586 | 35185 ft | 475 kts | 135° |
| 2026-04-26 16:57 | 40.58532 | -81.53346 | 35183 ft | 476 kts | 135° |
| 2026-04-26 16:58 | 40.54643 | -81.48233 | 35185 ft | 475 kts | 135° |
| 2026-04-26 16:59 | 40.46827 | -81.37989 | 35187 ft | 475 kts | 135° |
| 2026-04-26 17:00 | 40.37478 | -81.25782 | 35175 ft | 476 kts | 135° |
| 2026-04-26 17:00 | 40.30437 | -81.16622 | 35167 ft | 475 kts | 136° |
| 2026-04-26 17:01 | 40.25742 | -81.10528 | 35165 ft | 475 kts | 136° |
| 2026-04-26 17:01 | 40.21040 | -81.04439 | 35170 ft | 475 kts | 136° |
| 2026-04-26 17:02 | 40.16339 | -80.98364 | 35163 ft | 475 kts | 136° |
| 2026-04-26 17:02 | 40.11633 | -80.92294 | 35175 ft | 475 kts | 136° |
| 2026-04-26 17:03 | 40.06932 | -80.86240 | 35166 ft | 475 kts | 136° |
| 2026-04-26 17:03 | 40.02232 | -80.80181 | 35168 ft | 475 kts | 135° |
| 2026-04-26 17:04 | 39.97644 | -80.73980 | 35167 ft | 475 kts | 134° |
| 2026-04-26 17:04 | 39.93094 | -80.67736 | 35168 ft | 475 kts | 134° |
| 2026-04-26 17:05 | 39.88536 | -80.61523 | 35163 ft | 474 kts | 135° |
| 2026-04-26 17:05 | 39.83966 | -80.55339 | 35173 ft | 473 kts | 135° |
| 2026-04-26 17:06 | 39.79397 | -80.49174 | 35176 ft | 473 kts | 135° |
| 2026-04-26 17:06 | 39.74827 | -80.43020 | 35176 ft | 473 kts | 135° |
| 2026-04-26 17:07 | 39.70254 | -80.36875 | 35172 ft | 473 kts | 135° |
| 2026-04-26 17:07 | 39.65680 | -80.30738 | 35168 ft | 473 kts | 135° |
| 2026-04-26 17:08 | 39.61105 | -80.24612 | 35160 ft | 472 kts | 135° |
| 2026-04-26 17:08 | 39.56527 | -80.18497 | 35154 ft | 473 kts | 135° |
| 2026-04-26 17:09 | 39.52722 | -80.13426 | 35158 ft | 472 kts | 135° |
| 2026-04-26 17:09 | 39.47367 | -80.06297 | 35156 ft | 473 kts | 135° |
| 2026-04-26 17:10 | 39.42787 | -80.00214 | 34515 ft | 479 kts | 135° |
| 2026-04-26 17:10 | 39.40465 | -79.97134 | 33906 ft | 477 kts | 135° |
| 2026-04-26 17:10 | 39.38148 | -79.94064 | 33256 ft | 478 kts | 135° |
| 2026-04-26 17:11 | 39.35825 | -79.90990 | 32584 ft | 478 kts | 135° |
| 2026-04-26 17:11 | 39.33502 | -79.87917 | 31946 ft | 478 kts | 135° |
| 2026-04-26 17:11 | 39.31241 | -79.84808 | 31463 ft | 473 kts | 127° |
| 2026-04-26 17:11 | 39.29615 | -79.81146 | 30990 ft | 468 kts | 110° |
| 2026-04-26 17:12 | 39.28518 | -79.73085 | 30233 ft | 450 kts | 92° |
| 2026-04-26 17:12 | 39.28268 | -79.69093 | 29853 ft | 445 kts | 92° |
| 2026-04-26 17:13 | 39.27701 | -79.61108 | 29100 ft | 449 kts | 94° |
| 2026-04-26 17:13 | 39.27379 | -79.57103 | 28715 ft | 447 kts | 94° |
| 2026-04-26 17:13 | 39.26731 | -79.49210 | 27941 ft | 437 kts | 94° |
| 2026-04-26 17:14 | 39.26414 | -79.45321 | 27576 ft | 435 kts | 94° |
| 2026-04-26 17:14 | 39.25782 | -79.37572 | 26833 ft | 432 kts | 94° |
| 2026-04-26 17:14 | 39.25466 | -79.33728 | 26463 ft | 430 kts | 94° |
| 2026-04-26 17:15 | 39.24837 | -79.26100 | 25735 ft | 425 kts | 94° |
| 2026-04-26 17:15 | 39.24522 | -79.22333 | 25371 ft | 419 kts | 94° |
| 2026-04-26 17:15 | 39.24209 | -79.18627 | 25018 ft | 412 kts | 94° |
| 2026-04-26 17:16 | 39.23897 | -79.14976 | 24662 ft | 407 kts | 94° |
| 2026-04-26 17:16 | 39.23589 | -79.11367 | 24333 ft | 403 kts | 94° |
| 2026-04-26 17:16 | 39.23284 | -79.07792 | 23985 ft | 399 kts | 94° |
| 2026-04-26 17:16 | 39.22980 | -79.04242 | 23657 ft | 398 kts | 94° |
| 2026-04-26 17:17 | 39.22675 | -79.00679 | 23328 ft | 401 kts | 94° |
| 2026-04-26 17:17 | 39.22366 | -78.97095 | 22979 ft | 403 kts | 94° |
| 2026-04-26 17:17 | 39.22044 | -78.93517 | 22632 ft | 400 kts | 94° |
| 2026-04-26 17:17 | 39.21701 | -78.89969 | 22289 ft | 398 kts | 95° |
| 2026-04-26 17:18 | 39.21353 | -78.86440 | 21946 ft | 395 kts | 95° |
| 2026-04-26 17:18 | 39.21009 | -78.82937 | 21613 ft | 393 kts | 94° |
| 2026-04-26 17:18 | 39.20669 | -78.79455 | 21285 ft | 391 kts | 94° |
| 2026-04-26 17:18 | 39.20331 | -78.75985 | 20942 ft | 389 kts | 94° |
| 2026-04-26 17:19 | 39.19657 | -78.69092 | 20287 ft | 386 kts | 94° |
| 2026-04-26 17:19 | 39.19320 | -78.65668 | 19962 ft | 384 kts | 94° |
| 2026-04-26 17:19 | 39.18983 | -78.62258 | 19630 ft | 383 kts | 94° |
| 2026-04-26 17:20 | 39.18647 | -78.58861 | 19315 ft | 381 kts | 94° |
| 2026-04-26 17:20 | 39.18425 | -78.56619 | 19098 ft | 381 kts | 94° |
| 2026-04-26 17:20 | 39.17980 | -78.52147 | 18665 ft | 379 kts | 94° |
| 2026-04-26 17:20 | 39.17645 | -78.48787 | 18330 ft | 377 kts | 94° |
| 2026-04-26 17:21 | 39.17311 | -78.45441 | 18009 ft | 376 kts | 94° |
| 2026-04-26 17:21 | 39.16977 | -78.42102 | 17692 ft | 375 kts | 94° |
| 2026-04-26 17:21 | 39.16643 | -78.38787 | 17366 ft | 372 kts | 94° |
| 2026-04-26 17:21 | 39.16252 | -78.35486 | 16925 ft | 375 kts | 99° |
| 2026-04-26 17:22 | 39.15534 | -78.32255 | 16598 ft | 374 kts | 104° |
| 2026-04-26 17:22 | 39.14693 | -78.29089 | 16262 ft | 371 kts | 105° |
| 2026-04-26 17:22 | 39.13851 | -78.25974 | 15943 ft | 366 kts | 105° |
| 2026-04-26 17:22 | 39.13040 | -78.22895 | 15634 ft | 361 kts | 104° |
| 2026-04-26 17:23 | 39.12261 | -78.19844 | 15340 ft | 357 kts | 104° |
| 2026-04-26 17:23 | 39.11501 | -78.16809 | 15033 ft | 355 kts | 104° |
| 2026-04-26 17:23 | 39.10751 | -78.13797 | 14739 ft | 352 kts | 103° |
| 2026-04-26 17:23 | 39.10005 | -78.10808 | 14447 ft | 350 kts | 104° |
| 2026-04-26 17:24 | 39.09251 | -78.07835 | 14155 ft | 348 kts | 104° |
| 2026-04-26 17:24 | 39.08496 | -78.04883 | 13865 ft | 346 kts | 104° |
| 2026-04-26 17:24 | 39.07743 | -78.01947 | 13573 ft | 344 kts | 104° |
| 2026-04-26 17:24 | 39.06996 | -77.99032 | 13286 ft | 343 kts | 104° |
| 2026-04-26 17:25 | 39.06252 | -77.96125 | 13007 ft | 342 kts | 104° |
| 2026-04-26 17:25 | 39.05512 | -77.93233 | 12717 ft | 338 kts | 104° |
| 2026-04-26 17:25 | 39.04781 | -77.90383 | 12435 ft | 333 kts | 104° |
| 2026-04-26 17:25 | 39.04057 | -77.87568 | 12152 ft | 329 kts | 103° |
| 2026-04-26 17:26 | 39.03343 | -77.84795 | 11884 ft | 324 kts | 103° |
| 2026-04-26 17:26 | 39.02641 | -77.82065 | 11614 ft | 319 kts | 104° |
| 2026-04-26 17:26 | 39.01948 | -77.79374 | 11355 ft | 315 kts | 104° |
| 2026-04-26 17:26 | 39.01263 | -77.76720 | 11095 ft | 311 kts | 104° |
| 2026-04-26 17:27 | 39.00586 | -77.74100 | 10839 ft | 307 kts | 104° |
| 2026-04-26 17:27 | 38.99916 | -77.71511 | 10586 ft | 304 kts | 104° |
| 2026-04-26 17:27 | 38.99252 | -77.68948 | 10328 ft | 300 kts | 104° |
| 2026-04-26 17:27 | 38.98596 | -77.66419 | 10079 ft | 297 kts | 104° |
| 2026-04-26 17:28 | 38.97884 | -77.63954 | 9970 ft | 289 kts | 110° |
| 2026-04-26 17:28 | 38.97064 | -77.61601 | 9641 ft | 290 kts | 111° |
| 2026-04-26 17:28 | 38.96220 | -77.59269 | 9422 ft | 286 kts | 112° |
| 2026-04-26 17:28 | 38.95385 | -77.56955 | 9176 ft | 284 kts | 111° |
| 2026-04-26 17:29 | 38.94566 | -77.54666 | 8947 ft | 281 kts | 112° |
| 2026-04-26 17:29 | 38.94032 | -77.53162 | 8790 ft | 279 kts | 111° |
| 2026-04-26 17:29 | 38.92968 | -77.50150 | 8487 ft | 275 kts | 111° |
| 2026-04-26 17:29 | 38.92183 | -77.47923 | 8269 ft | 272 kts | 111° |
| 2026-04-26 17:30 | 38.91406 | -77.45725 | 8047 ft | 269 kts | 111° |
| 2026-04-26 17:30 | 38.90574 | -77.43565 | 7763 ft | 272 kts | 116° |
| 2026-04-26 17:30 | 38.89648 | -77.41452 | 7487 ft | 272 kts | 117° |
| 2026-04-26 17:30 | 38.88710 | -77.39343 | 7199 ft | 272 kts | 117° |
| 2026-04-26 17:31 | 38.87773 | -77.37223 | 6916 ft | 273 kts | 116° |
| 2026-04-26 17:31 | 38.86844 | -77.35102 | 6611 ft | 273 kts | 116° |
| 2026-04-26 17:31 | 38.85916 | -77.32978 | 6321 ft | 273 kts | 116° |
| 2026-04-26 17:31 | 38.84991 | -77.30854 | 6024 ft | 273 kts | 116° |
| 2026-04-26 17:32 | 38.84060 | -77.28762 | 5709 ft | 267 kts | 117° |
| 2026-04-26 17:32 | 38.83143 | -77.26725 | 5397 ft | 261 kts | 117° |
| 2026-04-26 17:32 | 38.82243 | -77.24737 | 5087 ft | 254 kts | 117° |
| 2026-04-26 17:32 | 38.81368 | -77.22798 | 4781 ft | 249 kts | 116° |
| 2026-04-26 17:33 | 38.80500 | -77.20871 | 4503 ft | 250 kts | 116° |
| 2026-04-26 17:33 | 38.79632 | -77.18945 | 4243 ft | 249 kts | 116° |
| 2026-04-26 17:33 | 38.78766 | -77.17026 | 4004 ft | 248 kts | 116° |
| 2026-04-26 17:34 | 38.77049 | -77.13234 | 3567 ft | 241 kts | 117° |
| 2026-04-26 17:34 | 38.75889 | -77.11725 | 3320 ft | 242 kts | 150° |
| 2026-04-26 17:34 | 38.74283 | -77.11192 | 3135 ft | 236 kts | 172° |
| 2026-04-26 17:34 | 38.72656 | -77.11085 | 3024 ft | 233 kts | 176° |
| 2026-04-26 17:35 | 38.71036 | -77.11029 | 2978 ft | 232 kts | 176° |
| 2026-04-26 17:35 | 38.69428 | -77.10966 | 2980 ft | 230 kts | 175° |
| 2026-04-26 17:35 | 38.67839 | -77.10892 | 2997 ft | 228 kts | 175° |
| 2026-04-26 17:35 | 38.66245 | -77.10787 | 2974 ft | 231 kts | 168° |
| 2026-04-26 17:36 | 38.64796 | -77.10030 | 2852 ft | 224 kts | 136° |
| 2026-04-26 17:36 | 38.63949 | -77.08487 | 2699 ft | 206 kts | 102° |
| 2026-04-26 17:36 | 38.63865 | -77.06757 | 2548 ft | 194 kts | 78° |
| 2026-04-26 17:36 | 38.64479 | -77.05277 | 2362 ft | 190 kts | 46° |
| 2026-04-26 17:37 | 38.65591 | -77.04389 | 2203 ft | 190 kts | 28° |
| 2026-04-26 17:37 | 38.66785 | -77.03659 | 2086 ft | 192 kts | 29° |
| 2026-04-26 17:37 | 38.67983 | -77.02896 | 2036 ft | 191 kts | 29° |
| 2026-04-26 17:38 | 38.70526 | -77.02323 | 2007 ft | 191 kts | 355° |
| 2026-04-26 17:38 | 38.71863 | -77.02445 | 1992 ft | 193 kts | 357° |
| 2026-04-26 17:38 | 38.73141 | -77.02562 | 1979 ft | 175 kts | 357° |
| 2026-04-26 17:38 | 38.74337 | -77.02680 | 1944 ft | 176 kts | 356° |
| 2026-04-26 17:39 | 38.75540 | -77.02803 | 1705 ft | 166 kts | 358° |
| 2026-04-26 17:39 | 38.76628 | -77.02914 | 1500 ft | 149 kts | 358° |
| 2026-04-26 17:39 | 38.77608 | -77.03013 | 1329 ft | 140 kts | 358° |
| 2026-04-26 17:39 | 38.78572 | -77.03109 | 1136 ft | 137 kts | 358° |
| 2026-04-26 17:40 | 38.79518 | -77.03205 | 954 ft | 136 kts | 358° |
| 2026-04-26 17:40 | 38.79838 | -77.03237 | 894 ft | 136 kts | 358° |
| 2026-04-26 17:40 | 38.81421 | -77.03395 | 604 ft | 139 kts | 358° |
| 2026-04-26 17:40 | 38.82070 | -77.03464 | 467 ft | 138 kts | 359° |
| 2026-04-26 17:41 | 38.83010 | -77.03558 | 241 ft | 132 kts | 2° |
| 2026-04-26 17:41 | 38.83924 | -77.03650 | 104 ft | 133 kts | 358° |
| 2026-04-26 17:41 | 38.84836 | -77.03743 | 25 ft | 118 kts | 355° |
| 2026-04-26 17:41 | 38.85437 | -77.03804 | 25 ft | 55 kts | 356° |
| 2026-04-26 17:42 | 38.85764 | -77.03836 | 25 ft | 39 kts | 355° |
| 2026-04-26 17:42 | 38.85892 | -77.03878 | 26 ft | 15 kts | 316° |
| 2026-04-26 17:42 | 38.85923 | -77.03947 | 26 ft | 4 kts | 291° |
| 2026-04-26 17:42 | 38.85924 | -77.03968 | 24 ft | 0 kts | 264° |
| 2026-04-26 17:43 | 38.85924 | -77.03969 | 27 ft | 0 kts | 264° |
| 2026-04-26 17:43 | 38.85924 | -77.03970 | 24 ft | 0 kts | 263° |
| 2026-04-26 17:43 | 38.85923 | -77.03979 | 23 ft | 2 kts | 264° |
| 2026-04-26 17:44 | 38.85920 | -77.03989 | 23 ft | 4 kts | 235° |
| 2026-04-26 17:44 | 38.85878 | -77.03991 | 24 ft | 9 kts | 173° |
| 2026-04-26 17:44 | 38.85813 | -77.03983 | 25 ft | 11 kts | 175° |
| 2026-04-26 17:44 | 38.85712 | -77.03973 | 27 ft | 15 kts | 175° |
| 2026-04-26 17:45 | 38.85606 | -77.03962 | 24 ft | 15 kts | 175° |
| 2026-04-26 17:45 | 38.85524 | -77.03954 | 23 ft | 9 kts | 175° |
| 2026-04-26 17:45 | 38.85464 | -77.03948 | 23 ft | 8 kts | 175° |
| 2026-04-26 17:45 | 38.85406 | -77.03942 | 23 ft | 8 kts | 175° |
| 2026-04-26 17:46 | 38.85337 | -77.03935 | 25 ft | 13 kts | 176° |
| 2026-04-26 17:46 | 38.85237 | -77.03925 | 23 ft | 15 kts | 175° |
| 2026-04-26 17:46 | 38.85138 | -77.03915 | 26 ft | 14 kts | 175° |
| 2026-04-26 17:46 | 38.85043 | -77.03906 | 24 ft | 13 kts | 175° |
| 2026-04-26 17:47 | 38.84952 | -77.03896 | 24 ft | 13 kts | 175° |
| 2026-04-26 17:47 | 38.84898 | -77.03892 | 23 ft | 10 kts | 185° |
| 2026-04-26 17:47 | 38.84834 | -77.03944 | 25 ft | 9 kts | 179° |
| 2026-04-26 17:47 | 38.84776 | -77.03952 | 25 ft | 8 kts | 198° |
| 2026-04-26 17:48 | 38.84724 | -77.03982 | 23 ft | 8 kts | 205° |
| 2026-04-26 17:48 | 38.84672 | -77.04014 | 23 ft | 9 kts | 205° |
| 2026-04-26 17:48 | 38.84613 | -77.04055 | 23 ft | 6 kts | 225° |
| 2026-04-26 17:48 | 38.84592 | -77.04103 | 23 ft | 7 kts | 252° |
| 2026-04-26 17:49 | 38.84581 | -77.04163 | 25 ft | 7 kts | 257° |
| 2026-04-26 17:49 | 38.84568 | -77.04246 | 23 ft | 12 kts | 258° |
| 2026-04-26 17:49 | 38.84578 | -77.04339 | 23 ft | 11 kts | 306° |
| 2026-04-26 17:49 | 38.84631 | -77.04402 | 23 ft | 10 kts | 320° |
| 2026-04-26 17:50 | 38.84682 | -77.04412 | 23 ft | 4 kts | 24° |
| 2026-04-26 17:50 | 38.84706 | -77.04398 | 23 ft | 4 kts | 24° |
| 2026-04-26 17:50 | 38.84731 | -77.04384 | 24 ft | 4 kts | 28° |
| 2026-04-26 17:50 | 38.84732 | -77.04354 | 23 ft | 3 kts | 121° |
| 2026-04-26 17:51 | 38.84723 | -77.04340 | 24 ft | 2 kts | 131° |
| 2026-04-26 17:51 | 38.84717 | -77.04332 | 23 ft | 0 kts | 131° |
| 2026-04-26 17:51 | 38.84717 | -77.04331 | 23 ft | 0 kts | 131° |